createdAt,value
2022-09-05T00:02:36.317Z,12.70
2022-09-05T00:05:50.998Z,12.70
2022-09-05T00:08:51.597Z,12.60
2022-09-05T00:11:40.810Z,12.60
2022-09-05T00:14:34.288Z,12.60
2022-09-05T00:17:47.184Z,12.60
2022-09-05T00:24:28.181Z,12.60
2022-09-05T00:24:37.911Z,12.60
2022-09-05T00:26:31.661Z,12.60
2022-09-05T00:29:14.906Z,12.60
2022-09-05T00:32:01.117Z,12.60
2022-09-05T00:34:49.896Z,12.60
2022-09-05T00:37:32.360Z,12.50
2022-09-05T00:40:20.461Z,12.50
2022-09-05T00:42:57.797Z,12.40
2022-09-05T00:45:33.212Z,12.40
2022-09-05T00:48:16.608Z,12.40
2022-09-05T00:51:02.361Z,12.30
2022-09-05T00:53:41.299Z,12.30
2022-09-05T00:56:26.188Z,12.30
2022-09-05T00:59:34.673Z,12.30
2022-09-05T01:02:11.165Z,12.30
2022-09-05T01:04:47.849Z,12.20
2022-09-05T01:07:44.206Z,12.20
2022-09-05T01:10:27.080Z,12.20
2022-09-05T01:13:16.104Z,12.20
2022-09-05T01:15:55.447Z,12.10
2022-09-05T01:18:41.114Z,12.10
2022-09-05T01:21:31.468Z,12.00
2022-09-05T01:24:28.088Z,11.90
2022-09-05T01:27:41.008Z,11.80
2022-09-05T01:30:31.793Z,11.80
2022-09-05T01:33:11.909Z,11.70
2022-09-05T01:36:05.547Z,11.70
2022-09-05T01:38:44.552Z,11.80
2022-09-05T01:41:37.959Z,11.80
2022-09-05T01:44:32.436Z,11.90
2022-09-05T01:47:25.561Z,11.90
2022-09-05T01:50:11.495Z,11.90
2022-09-05T01:52:59.037Z,12.00
2022-09-05T01:56:04.907Z,12.00
2022-09-05T01:58:51.363Z,12.00
2022-09-05T02:01:32.924Z,12.00
2022-09-05T02:04:28.924Z,12.00
2022-09-05T02:07:19.967Z,12.00
2022-09-05T02:10:14.215Z,11.90
2022-09-05T02:12:58.443Z,11.90
2022-09-05T02:15:59.534Z,11.90
2022-09-05T02:18:44.762Z,11.80
2022-09-05T02:21:23.010Z,11.80
2022-09-05T02:24:04.218Z,11.70
2022-09-05T02:26:37.708Z,11.70
2022-09-05T02:29:29.417Z,11.60
2022-09-05T02:32:04.135Z,11.50
2022-09-05T02:34:42.031Z,11.50
2022-09-05T02:37:21.549Z,11.60
2022-09-05T02:45:02.775Z,11.60
2022-09-05T02:45:14.351Z,11.60
2022-09-05T02:46:14.547Z,11.70
2022-09-05T02:48:56.082Z,11.70
2022-09-05T02:57:24.836Z,11.70
2022-09-05T02:57:39.933Z,11.70
2022-09-05T02:58:06.215Z,11.70
2022-09-05T03:00:25.101Z,11.70
2022-09-05T03:03:09.445Z,11.70
2022-09-05T03:05:45.697Z,11.60
2022-09-05T03:08:24.346Z,11.60
2022-09-05T03:11:29.043Z,11.60
2022-09-05T03:14:42.685Z,11.50
2022-09-05T03:17:53.617Z,11.40
2022-09-05T03:21:09.654Z,11.30
2022-09-05T03:24:30.755Z,11.30
2022-09-05T03:27:33.433Z,11.30
2022-09-05T03:30:13.373Z,11.20
2022-09-05T03:33:20.293Z,11.20
2022-09-05T03:36:26.917Z,11.20
2022-09-05T03:39:32.611Z,11.20
2022-09-05T03:42:31.052Z,11.20
2022-09-05T03:45:37.024Z,11.20
2022-09-05T03:48:31.037Z,11.20
2022-09-05T03:57:05.358Z,11.20
2022-09-05T03:57:28.306Z,11.20
2022-09-05T03:57:41.794Z,11.30
2022-09-05T04:00:22.512Z,11.30
2022-09-05T04:08:09.486Z,11.30
2022-09-05T04:08:24.210Z,11.30
2022-09-05T04:09:11.319Z,11.40
2022-09-05T04:11:44.400Z,11.40
2022-09-05T04:14:23.261Z,11.40
2022-09-05T04:16:56.198Z,11.50
2022-09-05T04:19:31.376Z,11.50
2022-09-05T04:22:17.016Z,11.50
2022-09-05T04:24:52.657Z,11.60
2022-09-05T04:27:39.564Z,11.60
2022-09-05T04:30:38.679Z,11.70
2022-09-05T04:33:22.272Z,11.80
2022-09-05T04:36:19.013Z,11.80
2022-09-05T04:39:10.415Z,11.90
2022-09-05T04:41:44.837Z,12.00
2022-09-05T04:44:18.679Z,12.00
2022-09-05T04:46:53.555Z,12.10
2022-09-05T04:49:28.032Z,12.20
2022-09-05T04:52:16.808Z,12.20
2022-09-05T04:55:01.811Z,12.30
2022-09-05T04:57:36.578Z,12.30
2022-09-05T05:06:05.654Z,12.40
2022-09-05T05:06:05.741Z,12.50
2022-09-05T05:06:30.001Z,12.60
2022-09-05T05:08:54.874Z,12.60
2022-09-05T05:17:55.336Z,12.70
2022-09-05T05:18:13.564Z,12.90
2022-09-05T05:18:15.463Z,12.70
2022-09-05T05:20:41.239Z,13.00
2022-09-05T05:23:16.150Z,13.10
2022-09-05T05:25:52.715Z,13.30
2022-09-05T05:28:29.976Z,13.40
2022-09-05T05:31:11.399Z,13.40
2022-09-05T05:33:50.682Z,13.40
2022-09-05T05:36:25.466Z,13.30
2022-09-05T05:39:00.506Z,13.20
2022-09-05T05:41:38.739Z,13.30
2022-09-05T05:44:16.190Z,13.40
2022-09-05T05:46:49.050Z,13.40
2022-09-05T05:49:32.237Z,13.50
2022-09-05T05:52:14.516Z,13.50
2022-09-05T05:54:51.186Z,13.50
2022-09-05T05:58:09.129Z,13.70
2022-09-05T06:01:03.065Z,13.70
2022-09-05T06:04:02.321Z,13.70
2022-09-05T06:06:44.658Z,13.90
2022-09-05T06:14:48.507Z,14.00
2022-09-05T06:15:05.738Z,14.20
2022-09-05T06:16:34.770Z,14.40
2022-09-05T06:22:04.998Z,14.70
2022-09-05T06:23:37.444Z,14.70
2022-09-05T06:26:34.912Z,15.00
2022-09-05T06:29:11.325Z,15.00
2022-09-05T06:32:02.249Z,15.20
2022-09-05T06:35:04.837Z,15.40
2022-09-05T06:37:45.932Z,15.50
2022-09-05T06:40:21.407Z,15.50
2022-09-05T06:43:31.805Z,15.60
2022-09-05T06:46:11.989Z,15.70
2022-09-05T06:49:29.965Z,15.70
2022-09-05T06:52:29.449Z,15.80
2022-09-05T06:55:34.443Z,15.90
2022-09-05T06:58:39.884Z,16.00
2022-09-05T07:01:11.287Z,16.10
2022-09-05T07:03:59.789Z,16.20
2022-09-05T07:07:06.277Z,16.30
2022-09-05T07:09:58.443Z,16.30
2022-09-05T07:12:32.010Z,16.60
2022-09-05T07:15:11.201Z,16.60
2022-09-05T07:18:09.524Z,16.70
2022-09-05T07:21:16.458Z,17.10
2022-09-05T07:24:06.191Z,17.00
2022-09-05T07:26:51.819Z,17.20
2022-09-05T07:29:27.961Z,17.40
2022-09-05T07:31:59.980Z,17.40
2022-09-05T07:34:31.663Z,17.40
2022-09-05T07:37:14.549Z,17.70
2022-09-05T07:39:51.886Z,17.70
2022-09-05T07:42:26.526Z,17.90
2022-09-05T07:44:59.838Z,18.30
2022-09-05T07:47:33.277Z,18.20
2022-09-05T07:50:42.868Z,18.40
2022-09-05T07:56:50.997Z,18.60
2022-09-05T07:57:10.066Z,18.80
2022-09-05T07:58:50.858Z,19.50
2022-09-05T08:01:24.119Z,19.70
2022-09-05T08:04:00.339Z,20.00
2022-09-05T08:07:47.879Z,20.10
2022-09-05T08:10:06.247Z,20.30
2022-09-05T08:12:28.027Z,20.60
2022-09-05T08:15:10.246Z,20.20
2022-09-05T08:17:57.334Z,20.80
2022-09-05T08:20:37.219Z,20.80
2022-09-05T08:23:10.717Z,21.00
2022-09-05T08:25:56.950Z,21.20
2022-09-05T08:28:39.300Z,21.30
2022-09-05T08:31:15.159Z,21.70
2022-09-05T08:33:47.005Z,21.80
2022-09-05T08:36:25.593Z,21.70
2022-09-05T08:38:55.326Z,21.70
2022-09-05T08:41:49.185Z,22.80
2022-09-05T08:46:40.020Z,23.30
2022-09-05T08:47:32.435Z,22.50
2022-09-05T08:50:29.542Z,22.50
2022-09-05T08:53:28.356Z,22.70
2022-09-05T08:56:05.977Z,23.20
2022-09-05T08:59:27.896Z,23.60
2022-09-05T09:02:44.822Z,23.50
2022-09-05T09:05:14.318Z,24.60
2022-09-05T09:07:52.007Z,24.60
2022-09-05T09:10:43.011Z,24.80
2022-09-05T09:13:27.436Z,25.60
2022-09-05T09:16:06.938Z,25.80
2022-09-05T09:18:46.152Z,25.90
2022-09-05T09:21:28.734Z,26.00
2022-09-05T09:24:09.063Z,26.90
2022-09-05T09:26:44.344Z,28.10
2022-09-05T09:29:19.348Z,27.30
2022-09-05T09:32:09.749Z,27.60
2022-09-05T09:34:56.188Z,27.30
2022-09-05T09:38:12.939Z,27.60
2022-09-05T09:41:24.508Z,29.10
2022-09-05T09:44:24.439Z,29.10
2022-09-05T09:48:07.625Z,29.50
2022-09-05T09:51:02.562Z,29.00
2022-09-05T09:53:49.478Z,28.80
2022-09-05T09:57:04.391Z,29.20
2022-09-05T09:59:59.960Z,29.20
2022-09-05T10:06:03.206Z,29.20
2022-09-05T10:10:45.059Z,27.40
2022-09-05T10:10:59.752Z,28.60
2022-09-05T10:13:09.940Z,26.70
2022-09-05T10:15:51.477Z,27.60
2022-09-05T10:18:41.466Z,28.10
2022-09-05T10:21:35.673Z,28.90
2022-09-05T10:24:43.886Z,28.40
2022-09-05T10:27:36.994Z,27.80
2022-09-05T10:30:11.226Z,28.40
2022-09-05T10:35:04.457Z,27.30
2022-09-05T10:35:38.879Z,27.30
2022-09-05T10:38:15.924Z,26.40
2022-09-05T10:41:20.311Z,26.30
2022-09-05T10:43:49.625Z,26.80
2022-09-05T10:49:27.046Z,28.50
2022-09-05T10:52:19.048Z,29.30
2022-09-05T10:55:17.853Z,29.30
2022-09-05T10:58:02.584Z,30.20
2022-09-05T11:02:28.058Z,29.70
2022-09-05T11:03:53.985Z,30.60
2022-09-05T11:06:37.012Z,30.80
2022-09-05T11:09:16.476Z,32.40
2022-09-05T11:12:03.812Z,33.00
2022-09-05T11:14:49.388Z,31.60
2022-09-05T11:17:35.728Z,31.30
2022-09-05T11:20:35.530Z,31.50
2022-09-05T11:23:11.824Z,33.40
2022-09-05T11:25:43.653Z,32.80
2022-09-05T11:28:20.195Z,33.00
2022-09-05T11:30:55.201Z,33.50
2022-09-05T11:39:53.152Z,32.60
2022-09-05T11:39:54.837Z,32.00
2022-09-05T11:40:29.250Z,32.20
2022-09-05T11:43:21.027Z,32.50
2022-09-05T11:46:29.930Z,30.80
2022-09-05T11:49:47.327Z,31.90
2022-09-05T11:52:58.078Z,31.20
2022-09-05T11:55:37.575Z,30.90
2022-09-05T11:58:45.387Z,31.80
2022-09-05T12:01:41.851Z,32.90
2022-09-05T12:04:36.339Z,31.80
2022-09-05T12:07:42.667Z,29.60
2022-09-05T12:10:46.386Z,28.70
2022-09-05T12:13:44.210Z,28.10
2022-09-05T12:16:43.542Z,30.30
2022-09-05T12:19:27.150Z,30.80
2022-09-05T12:22:39.259Z,28.80
2022-09-05T12:27:36.927Z,30.10
2022-09-05T12:29:26.366Z,32.10
2022-09-05T12:32:49.559Z,31.00
2022-09-05T12:36:06.806Z,30.60
2022-09-05T12:40:54.952Z,30.30
2022-09-05T12:41:37.925Z,32.50
2022-09-05T12:44:45.099Z,33.20
2022-09-05T12:46:24.273Z,32.80
2022-09-05T12:49:04.118Z,32.40
2022-09-05T12:51:45.147Z,33.70
2022-09-05T12:54:33.408Z,33.50
2022-09-05T13:02:54.933Z,32.20
2022-09-05T13:03:07.759Z,31.80
2022-09-05T13:03:28.152Z,32.90
2022-09-05T13:06:02.071Z,33.10
2022-09-05T13:08:58.973Z,33.00
2022-09-05T13:14:50.428Z,30.70
2022-09-05T13:15:06.703Z,30.20
2022-09-05T13:17:20.164Z,29.50
2022-09-05T13:19:52.688Z,28.50
2022-09-05T13:22:25.088Z,28.50
2022-09-05T13:25:04.595Z,29.10
2022-09-05T13:27:41.413Z,30.40
2022-09-05T13:37:54.399Z,30.70
2022-09-05T13:38:02.953Z,29.50
2022-09-05T13:38:20.339Z,28.70
2022-09-05T13:39:06.736Z,29.20
2022-09-05T13:41:38.599Z,30.70
2022-09-05T13:44:26.303Z,30.90
2022-09-05T13:47:29.471Z,31.50
2022-09-05T13:50:13.039Z,30.90
2022-09-05T13:52:46.796Z,29.70
2022-09-05T13:55:24.031Z,29.60
2022-09-05T13:57:57.428Z,29.90
2022-09-05T14:01:08.401Z,30.40
2022-09-05T14:04:02.297Z,30.20
2022-09-05T14:10:22.523Z,30.40
2022-09-05T14:13:01.161Z,31.10
2022-09-05T14:15:41.730Z,30.50
2022-09-05T14:18:24.077Z,30.30
2022-09-05T14:21:17.016Z,30.20
2022-09-05T14:23:55.978Z,30.80
2022-09-05T14:26:32.379Z,31.00
2022-09-05T14:29:15.613Z,30.80
2022-09-05T14:37:41.131Z,28.40
2022-09-05T14:37:45.522Z,29.00
2022-09-05T14:38:11.485Z,28.10
2022-09-05T14:41:32.158Z,28.50
2022-09-05T14:44:42.942Z,28.20
2022-09-05T14:47:57.594Z,28.80
2022-09-05T14:50:49.790Z,28.90
2022-09-05T14:58:49.181Z,27.50
2022-09-05T15:02:43.423Z,27.90
2022-09-05T15:02:54.995Z,27.20
2022-09-05T15:05:23.799Z,27.30
2022-09-05T15:08:03.838Z,27.30
2022-09-05T15:12:20.839Z,27.30
2022-09-05T15:13:39.153Z,27.70
2022-09-05T15:16:10.653Z,27.70
2022-09-05T15:18:44.548Z,27.60
2022-09-05T15:21:33.073Z,26.60
2022-09-05T15:24:21.558Z,25.80
2022-09-05T15:26:54.008Z,25.80
2022-09-05T15:29:25.854Z,25.60
2022-09-05T15:32:12.576Z,25.70
2022-09-05T15:34:43.278Z,25.70
2022-09-05T15:37:29.360Z,25.50
2022-09-05T15:40:23.539Z,25.00
2022-09-05T15:42:57.529Z,24.80
2022-09-05T15:45:29.377Z,24.00
2022-09-05T15:48:12.619Z,23.80
2022-09-05T15:50:50.665Z,23.50
2022-09-05T15:53:25.728Z,23.30
2022-09-05T15:56:05.447Z,23.20
2022-09-05T15:58:54.194Z,23.20
2022-09-05T16:01:52.455Z,23.00
2022-09-05T16:10:31.079Z,22.90
2022-09-05T16:10:39.977Z,22.90
2022-09-05T16:10:49.080Z,22.80
2022-09-05T16:13:14.963Z,22.70
2022-09-05T16:18:17.292Z,22.50
2022-09-05T16:23:23.410Z,22.20
2022-09-05T16:23:23.591Z,22.00
2022-09-05T16:24:58.608Z,21.80
2022-09-05T16:27:37.138Z,21.60
2022-09-05T16:30:22.685Z,21.60
2022-09-05T16:32:55.507Z,21.30
2022-09-05T16:35:27.447Z,21.20
2022-09-05T16:38:04.622Z,21.10
2022-09-05T16:40:39.819Z,21.10
2022-09-05T16:43:16.107Z,20.80
2022-09-05T16:45:50.289Z,20.60
2022-09-05T16:48:36.154Z,20.40
2022-09-05T16:51:15.643Z,20.20
2022-09-05T16:53:59.154Z,20.00
2022-09-05T16:56:37.252Z,19.80
2022-09-05T16:59:11.896Z,19.60
2022-09-05T17:02:09.707Z,19.30
2022-09-05T17:05:04.014Z,19.10
2022-09-05T17:07:58.906Z,19.00
2022-09-05T17:10:31.626Z,18.80
2022-09-05T17:13:08.622Z,18.60
2022-09-05T17:15:52.180Z,18.40
2022-09-05T17:18:26.874Z,18.40
2022-09-05T17:21:01.692Z,18.20
2022-09-05T17:29:19.042Z,18.10
2022-09-05T17:29:25.746Z,18.00
2022-09-05T17:31:25.200Z,17.90
2022-09-05T17:32:43.931Z,17.50
2022-09-05T17:35:25.475Z,17.30
2022-09-05T17:38:18.366Z,17.20
2022-09-05T17:41:13.209Z,17.00
2022-09-05T17:43:44.329Z,16.80
2022-09-05T17:46:23.688Z,16.70
2022-09-05T17:49:17.887Z,16.70
2022-09-05T17:52:25.622Z,16.60
2022-09-05T17:54:56.617Z,16.40
2022-09-05T17:57:45.661Z,16.20
2022-09-05T18:01:01.248Z,16.00
2022-09-05T18:04:16.970Z,15.90
2022-09-05T18:06:59.698Z,15.90
2022-09-05T18:10:01.492Z,15.80
2022-09-05T18:13:31.211Z,15.70
2022-09-05T18:16:11.149Z,15.70
2022-09-05T18:19:32.855Z,15.60
2022-09-05T18:21:53.709Z,15.50
2022-09-05T18:24:35.380Z,15.40
2022-09-05T18:28:03.400Z,15.40
2022-09-05T18:30:12.464Z,15.50
2022-09-05T18:32:46.664Z,15.40
2022-09-05T18:35:37.730Z,15.40
2022-09-05T18:38:51.736Z,15.40
2022-09-05T18:41:25.106Z,15.40
2022-09-05T18:44:13.722Z,15.30
2022-09-05T18:46:52.128Z,15.20
2022-09-05T18:50:25.476Z,15.10
2022-09-05T18:52:23.804Z,15.00
2022-09-05T18:56:09.736Z,14.90
2022-09-05T18:57:57.847Z,14.80
2022-09-05T19:00:46.928Z,14.70
2022-09-05T19:03:24.993Z,14.80
2022-09-05T19:06:36.809Z,14.80
2022-09-05T19:08:52.953Z,14.70
2022-09-05T19:11:33.529Z,14.70
2022-09-05T19:14:26.116Z,14.50
2022-09-05T19:17:10.109Z,14.50
2022-09-05T19:20:30.678Z,14.40
2022-09-05T19:23:11.210Z,14.50
2022-09-05T19:25:44.373Z,14.40
2022-09-05T19:36:49.028Z,14.40
2022-09-05T19:37:05.925Z,14.40
2022-09-05T19:37:09.975Z,14.30
2022-09-05T19:45:32.772Z,14.30
2022-09-05T19:47:44.516Z,14.20
2022-09-05T19:47:51.108Z,14.20
2022-09-05T19:48:36.263Z,14.00
2022-09-05T19:51:17.056Z,14.00
2022-09-05T19:54:04.704Z,14.00
2022-09-05T19:56:48.626Z,14.00
2022-09-05T19:59:19.888Z,13.80
2022-09-05T20:01:53.648Z,13.80
2022-09-05T20:04:27.431Z,13.70
2022-09-05T20:07:00.685Z,13.70
2022-09-05T20:09:31.199Z,13.70
2022-09-05T20:12:00.936Z,13.60
2022-09-05T20:14:37.342Z,13.60
2022-09-05T20:17:32.817Z,13.50
2022-09-05T20:20:11.720Z,13.40
2022-09-05T20:22:49.265Z,13.30
2022-09-05T20:25:35.356Z,13.20
2022-09-05T20:28:12.610Z,13.20
2022-09-05T20:30:45.071Z,13.30
2022-09-05T20:33:24.038Z,13.20
2022-09-05T20:43:09.871Z,13.10
2022-09-05T20:43:18.675Z,13.00
2022-09-05T20:43:35.069Z,13.00
2022-09-05T20:44:54.671Z,13.00
2022-09-05T20:54:06.772Z,12.90
2022-09-05T20:54:16.436Z,12.80
2022-09-05T20:54:17.612Z,12.70
2022-09-05T20:56:25.393Z,12.60
2022-09-05T20:59:01.642Z,12.50
2022-09-05T21:01:38.511Z,12.40
2022-09-05T21:04:10.998Z,12.40
2022-09-05T21:06:42.997Z,12.40
2022-09-05T21:09:26.013Z,12.40
2022-09-05T21:12:01.320Z,12.30
2022-09-05T21:14:32.418Z,12.40
2022-09-05T21:17:14.901Z,12.40
2022-09-05T21:19:53.742Z,12.40
2022-09-05T21:22:43.227Z,12.30
2022-09-05T21:25:44.299Z,12.30
2022-09-05T21:28:36.479Z,12.30
2022-09-05T21:31:16.146Z,12.20
2022-09-05T21:33:47.046Z,12.20
2022-09-05T21:36:17.302Z,12.30
2022-09-05T21:38:48.438Z,12.20
2022-09-05T21:41:18.901Z,12.20
2022-09-05T21:47:43.334Z,12.30
2022-09-05T21:47:44.823Z,12.50
2022-09-05T21:49:35.298Z,12.50
2022-09-05T21:52:05.155Z,12.60
2022-09-05T21:59:21.513Z,12.70
2022-09-05T21:59:32.586Z,12.70
2022-09-05T22:00:24.513Z,12.80
2022-09-05T22:02:53.863Z,12.80
2022-09-05T22:05:26.785Z,13.00
2022-09-05T22:07:56.612Z,13.00
2022-09-05T22:10:40.009Z,13.10
2022-09-05T22:13:17.304Z,13.20
2022-09-05T22:15:48.880Z,13.20
2022-09-05T22:18:18.496Z,13.30
2022-09-05T22:21:24.656Z,13.40
2022-09-05T22:23:44.632Z,13.40
2022-09-05T22:26:17.964Z,13.40
2022-09-05T22:28:49.185Z,13.50
2022-09-05T22:31:18.410Z,13.50
2022-09-05T22:33:50.899Z,13.50
2022-09-05T22:36:21.410Z,13.50
2022-09-05T22:38:50.304Z,13.60
2022-09-05T22:41:29.971Z,13.60
2022-09-05T22:43:59.979Z,13.60
2022-09-05T22:46:29.748Z,13.70
2022-09-05T22:48:58.875Z,13.70
2022-09-05T22:51:27.935Z,13.70
2022-09-05T22:53:57.403Z,13.70
2022-09-05T22:56:35.763Z,13.80
2022-09-05T22:59:05.382Z,13.90
2022-09-05T23:01:34.801Z,13.90
2022-09-05T23:04:04.845Z,13.90
2022-09-05T23:06:34.839Z,14.00
2022-09-05T23:09:03.900Z,14.00
2022-09-05T23:11:34.472Z,14.00
2022-09-05T23:14:06.094Z,14.00
2022-09-05T23:16:35.002Z,14.10
2022-09-05T23:19:04.190Z,14.10
2022-09-05T23:21:33.077Z,14.10
2022-09-05T23:24:02.038Z,14.10
2022-09-05T23:26:31.457Z,14.00
2022-09-05T23:29:01.976Z,14.00
2022-09-05T23:31:31.287Z,14.10
2022-09-05T23:34:00.473Z,14.10
2022-09-05T23:36:29.785Z,14.10
2022-09-05T23:38:58.905Z,14.10
2022-09-05T23:41:28.045Z,14.10
2022-09-05T23:43:57.117Z,14.10
2022-09-05T23:46:28.144Z,14.10
2022-09-05T23:48:57.113Z,14.10
2022-09-05T23:51:26.652Z,14.10
2022-09-05T23:53:55.876Z,14.00
2022-09-05T23:56:24.925Z,14.00
2022-09-05T23:58:54.150Z,14.00
